sensor_id;sensor_type;location;lat;lon;timestamp;temperature;humidity
23063;DHT22;11699;43.704;10.430;2023-12-04T00:01:25;5.10;99.90
23063;DHT22;11699;43.704;10.430;2023-12-04T00:03:53;5.10;99.90
23063;DHT22;11699;43.704;10.430;2023-12-04T00:06:21;4.90;99.90
23063;DHT22;11699;43.704;10.430;2023-12-04T00:08:49;4.90;99.90
23063;DHT22;11699;43.704;10.430;2023-12-04T00:11:17;4.90;99.90
23063;DHT22;11699;43.704;10.430;2023-12-04T00:13:44;4.90;99.90
23063;DHT22;11699;43.704;10.430;2023-12-04T00:16:13;4.90;99.90
23063;DHT22;11699;43.704;10.430;2023-12-04T00:18:41;4.90;99.90
23063;DHT22;11699;43.704;10.430;2023-12-04T00:21:08;5.00;99.90
23063;DHT22;11699;43.704;10.430;2023-12-04T00:23:35;5.00;99.90
23063;DHT22;11699;43.704;10.430;2023-12-04T00:26:03;5.00;99.90
23063;DHT22;11699;43.704;10.430;2023-12-04T00:28:31;5.00;99.90
23063;DHT22;11699;43.704;10.430;2023-12-04T00:30:58;4.90;99.90
23063;DHT22;11699;43.704;10.430;2023-12-04T00:33:27;4.90;99.90
23063;DHT22;11699;43.704;10.430;2023-12-04T00:35:54;4.80;99.90
23063;DHT22;11699;43.704;10.430;2023-12-04T00:38:22;4.80;99.90
23063;DHT22;11699;43.704;10.430;2023-12-04T00:40:49;4.70;99.90
23063;DHT22;11699;43.704;10.430;2023-12-04T00:43:16;4.60;99.90
23063;DHT22;11699;43.704;10.430;2023-12-04T00:45:44;4.70;99.90
23063;DHT22;11699;43.704;10.430;2023-12-04T00:48:11;4.70;99.90
23063;DHT22;11699;43.704;10.430;2023-12-04T00:50:40;4.60;99.90
23063;DHT22;11699;43.704;10.430;2023-12-04T00:53:07;4.70;99.90
23063;DHT22;11699;43.704;10.430;2023-12-04T00:55:34;4.70;99.90
23063;DHT22;11699;43.704;10.430;2023-12-04T00:58:01;4.70;99.90
23063;DHT22;11699;43.704;10.430;2023-12-04T01:00:28;4.70;99.90
23063;DHT22;11699;43.704;10.430;2023-12-04T01:02:56;4.70;99.90
23063;DHT22;11699;43.704;10.430;2023-12-04T01:05:23;4.70;99.90
23063;DHT22;11699;43.704;10.430;2023-12-04T01:07:52;4.70;99.90
23063;DHT22;11699;43.704;10.430;2023-12-04T01:10:19;4.80;99.90
23063;DHT22;11699;43.704;10.430;2023-12-04T01:12:47;4.80;99.90
23063;DHT22;11699;43.704;10.430;2023-12-04T01:15:14;4.90;99.90
23063;DHT22;11699;43.704;10.430;2023-12-04T01:17:41;4.70;99.90
23063;DHT22;11699;43.704;10.430;2023-12-04T01:20:09;4.90;99.90
23063;DHT22;11699;43.704;10.430;2023-12-04T01:22:38;4.80;99.90
23063;DHT22;11699;43.704;10.430;2023-12-04T01:25:08;4.70;99.90
23063;DHT22;11699;43.704;10.430;2023-12-04T01:27:35;4.80;99.90
23063;DHT22;11699;43.704;10.430;2023-12-04T01:30:04;4.80;99.90
23063;DHT22;11699;43.704;10.430;2023-12-04T01:32:34;4.80;99.90
23063;DHT22;11699;43.704;10.430;2023-12-04T01:35:01;4.80;99.90
23063;DHT22;11699;43.704;10.430;2023-12-04T01:37:29;4.70;99.90
23063;DHT22;11699;43.704;10.430;2023-12-04T01:39:56;4.70;99.90
23063;DHT22;11699;43.704;10.430;2023-12-04T01:42:26;4.70;99.90
23063;DHT22;11699;43.704;10.430;2023-12-04T01:44:54;4.60;99.90
23063;DHT22;11699;43.704;10.430;2023-12-04T01:47:21;4.60;99.90
23063;DHT22;11699;43.704;10.430;2023-12-04T01:49:48;4.60;99.90
23063;DHT22;11699;43.704;10.430;2023-12-04T01:52:16;4.70;99.90
23063;DHT22;11699;43.704;10.430;2023-12-04T01:54:43;4.60;99.90
23063;DHT22;11699;43.704;10.430;2023-12-04T01:57:11;4.60;99.90
23063;DHT22;11699;43.704;10.430;2023-12-04T01:59:40;4.40;99.90
23063;DHT22;11699;43.704;10.430;2023-12-04T02:02:07;4.50;99.90
23063;DHT22;11699;43.704;10.430;2023-12-04T02:04:35;4.40;99.90
23063;DHT22;11699;43.704;10.430;2023-12-04T02:07:03;4.40;99.90
23063;DHT22;11699;43.704;10.430;2023-12-04T02:09:31;4.20;99.90
23063;DHT22;11699;43.704;10.430;2023-12-04T02:11:59;4.30;99.90
23063;DHT22;11699;43.704;10.430;2023-12-04T02:14:26;4.30;99.90
23063;DHT22;11699;43.704;10.430;2023-12-04T02:16:56;4.40;99.90
23063;DHT22;11699;43.704;10.430;2023-12-04T02:19:25;4.50;99.90
23063;DHT22;11699;43.704;10.430;2023-12-04T02:21:52;4.70;99.90
23063;DHT22;11699;43.704;10.430;2023-12-04T02:24:21;4.70;99.90
23063;DHT22;11699;43.704;10.430;2023-12-04T02:26:53;4.70;99.90
23063;DHT22;11699;43.704;10.430;2023-12-04T02:29:29;4.70;99.90
23063;DHT22;11699;43.704;10.430;2023-12-04T02:31:58;4.80;99.90
23063;DHT22;11699;43.704;10.430;2023-12-04T02:34:27;4.90;99.90
23063;DHT22;11699;43.704;10.430;2023-12-04T02:36:57;4.90;99.90
23063;DHT22;11699;43.704;10.430;2023-12-04T02:39:26;4.90;99.90
23063;DHT22;11699;43.704;10.430;2023-12-04T02:41:54;5.00;99.90
23063;DHT22;11699;43.704;10.430;2023-12-04T02:44:21;5.00;99.90
23063;DHT22;11699;43.704;10.430;2023-12-04T02:46:48;5.10;99.90
23063;DHT22;11699;43.704;10.430;2023-12-04T02:49:16;5.10;99.90
23063;DHT22;11699;43.704;10.430;2023-12-04T02:51:43;5.10;99.90
23063;DHT22;11699;43.704;10.430;2023-12-04T02:54:10;5.20;99.90
23063;DHT22;11699;43.704;10.430;2023-12-04T02:56:39;5.20;99.90
23063;DHT22;11699;43.704;10.430;2023-12-04T02:59:06;5.20;99.90
23063;DHT22;11699;43.704;10.430;2023-12-04T03:01:33;5.20;99.90
23063;DHT22;11699;43.704;10.430;2023-12-04T03:04:01;5.10;99.90
23063;DHT22;11699;43.704;10.430;2023-12-04T03:06:28;5.10;99.90
23063;DHT22;11699;43.704;10.430;2023-12-04T03:08:55;5.00;99.90
23063;DHT22;11699;43.704;10.430;2023-12-04T03:11:23;5.00;99.90
23063;DHT22;11699;43.704;10.430;2023-12-04T03:13:52;5.00;99.90
23063;DHT22;11699;43.704;10.430;2023-12-04T03:16:19;5.00;99.90
23063;DHT22;11699;43.704;10.430;2023-12-04T03:18:46;4.90;99.90
23063;DHT22;11699;43.704;10.430;2023-12-04T03:21:14;4.80;99.90
23063;DHT22;11699;43.704;10.430;2023-12-04T03:23:41;4.70;99.90
23063;DHT22;11699;43.704;10.430;2023-12-04T03:26:09;4.70;99.90
23063;DHT22;11699;43.704;10.430;2023-12-04T03:28:36;4.60;99.90
23063;DHT22;11699;43.704;10.430;2023-12-04T03:31:07;4.60;99.90
23063;DHT22;11699;43.704;10.430;2023-12-04T03:33:34;4.60;99.90
23063;DHT22;11699;43.704;10.430;2023-12-04T03:36:02;4.50;99.90
23063;DHT22;11699;43.704;10.430;2023-12-04T03:38:29;4.40;99.90
23063;DHT22;11699;43.704;10.430;2023-12-04T03:40:56;4.50;99.90
23063;DHT22;11699;43.704;10.430;2023-12-04T03:43:24;4.40;99.90
23063;DHT22;11699;43.704;10.430;2023-12-04T03:45:51;4.30;99.90
23063;DHT22;11699;43.704;10.430;2023-12-04T03:48:19;4.30;99.90
23063;DHT22;11699;43.704;10.430;2023-12-04T03:50:46;4.30;99.90
23063;DHT22;11699;43.704;10.430;2023-12-04T03:53:14;4.40;99.90
23063;DHT22;11699;43.704;10.430;2023-12-04T03:55:41;4.30;99.90
23063;DHT22;11699;43.704;10.430;2023-12-04T03:58:09;4.30;99.90
23063;DHT22;11699;43.704;10.430;2023-12-04T04:00:36;4.30;99.90
23063;DHT22;11699;43.704;10.430;2023-12-04T04:03:07;4.30;99.90
23063;DHT22;11699;43.704;10.430;2023-12-04T04:05:35;4.20;99.90
23063;DHT22;11699;43.704;10.430;2023-12-04T04:08:02;4.30;99.90
23063;DHT22;11699;43.704;10.430;2023-12-04T04:10:31;4.30;99.90
23063;DHT22;11699;43.704;10.430;2023-12-04T04:12:58;4.40;99.90
23063;DHT22;11699;43.704;10.430;2023-12-04T04:15:25;4.40;99.90
23063;DHT22;11699;43.704;10.430;2023-12-04T04:17:53;4.40;99.90
23063;DHT22;11699;43.704;10.430;2023-12-04T04:20:20;4.40;99.90
23063;DHT22;11699;43.704;10.430;2023-12-04T04:22:49;4.40;99.90
23063;DHT22;11699;43.704;10.430;2023-12-04T04:25:16;4.40;99.90
23063;DHT22;11699;43.704;10.430;2023-12-04T04:27:44;4.40;99.90
23063;DHT22;11699;43.704;10.430;2023-12-04T04:30:12;4.40;99.90
23063;DHT22;11699;43.704;10.430;2023-12-04T04:32:40;4.40;99.90
23063;DHT22;11699;43.704;10.430;2023-12-04T04:35:08;4.40;99.90
23063;DHT22;11699;43.704;10.430;2023-12-04T04:37:35;4.40;99.90
23063;DHT22;11699;43.704;10.430;2023-12-04T04:40:05;4.20;99.90
23063;DHT22;11699;43.704;10.430;2023-12-04T04:42:33;4.10;99.90
23063;DHT22;11699;43.704;10.430;2023-12-04T04:45:00;4.20;99.90
23063;DHT22;11699;43.704;10.430;2023-12-04T04:47:27;4.20;99.90
23063;DHT22;11699;43.704;10.430;2023-12-04T04:49:55;4.20;99.90
23063;DHT22;11699;43.704;10.430;2023-12-04T04:52:22;4.20;99.90
23063;DHT22;11699;43.704;10.430;2023-12-04T04:54:49;4.20;99.90
23063;DHT22;11699;43.704;10.430;2023-12-04T04:57:18;4.10;99.90
23063;DHT22;11699;43.704;10.430;2023-12-04T04:59:45;4.20;99.90
23063;DHT22;11699;43.704;10.430;2023-12-04T05:02:13;4.20;99.90
23063;DHT22;11699;43.704;10.430;2023-12-04T05:04:40;4.20;99.90
23063;DHT22;11699;43.704;10.430;2023-12-04T05:07:07;4.10;99.90
23063;DHT22;11699;43.704;10.430;2023-12-04T05:09:34;4.30;99.90
23063;DHT22;11699;43.704;10.430;2023-12-04T05:12:02;4.50;99.90
23063;DHT22;11699;43.704;10.430;2023-12-04T05:14:31;4.50;99.90
23063;DHT22;11699;43.704;10.430;2023-12-04T05:16:58;4.60;99.90
23063;DHT22;11699;43.704;10.430;2023-12-04T05:19:25;4.50;99.90
23063;DHT22;11699;43.704;10.430;2023-12-04T05:21:52;4.50;99.90
23063;DHT22;11699;43.704;10.430;2023-12-04T05:24:20;4.50;99.90
23063;DHT22;11699;43.704;10.430;2023-12-04T05:26:47;4.60;99.90
23063;DHT22;11699;43.704;10.430;2023-12-04T05:29:14;4.50;99.90
23063;DHT22;11699;43.704;10.430;2023-12-04T05:31:43;4.60;99.90
23063;DHT22;11699;43.704;10.430;2023-12-04T05:34:10;4.60;99.90
23063;DHT22;11699;43.704;10.430;2023-12-04T05:36:37;4.60;99.90
23063;DHT22;11699;43.704;10.430;2023-12-04T05:39:05;4.60;99.90
23063;DHT22;11699;43.704;10.430;2023-12-04T05:41:33;4.70;99.90
23063;DHT22;11699;43.704;10.430;2023-12-04T05:44:00;4.80;99.90
23063;DHT22;11699;43.704;10.430;2023-12-04T05:46:27;4.80;99.90
23063;DHT22;11699;43.704;10.430;2023-12-04T05:48:56;4.70;99.90
23063;DHT22;11699;43.704;10.430;2023-12-04T05:51:23;4.70;99.90
23063;DHT22;11699;43.704;10.430;2023-12-04T05:53:50;4.80;99.90
23063;DHT22;11699;43.704;10.430;2023-12-04T05:56:17;4.80;99.90
23063;DHT22;11699;43.704;10.430;2023-12-04T05:58:44;4.70;99.90
23063;DHT22;11699;43.704;10.430;2023-12-04T06:01:12;4.70;99.90
23063;DHT22;11699;43.704;10.430;2023-12-04T06:03:39;4.80;99.90
23063;DHT22;11699;43.704;10.430;2023-12-04T06:06:09;4.80;99.90
23063;DHT22;11699;43.704;10.430;2023-12-04T06:08:36;4.90;99.90
23063;DHT22;11699;43.704;10.430;2023-12-04T06:11:04;4.90;99.90
23063;DHT22;11699;43.704;10.430;2023-12-04T06:13:31;4.90;99.90
23063;DHT22;11699;43.704;10.430;2023-12-04T06:15:57;4.80;99.90
23063;DHT22;11699;43.704;10.430;2023-12-04T06:18:24;4.80;99.90
23063;DHT22;11699;43.704;10.430;2023-12-04T06:20:52;4.90;99.90
23063;DHT22;11699;43.704;10.430;2023-12-04T06:23:21;5.10;99.90
23063;DHT22;11699;43.704;10.430;2023-12-04T06:25:48;5.10;99.90
23063;DHT22;11699;43.704;10.430;2023-12-04T06:28:16;5.20;99.90
23063;DHT22;11699;43.704;10.430;2023-12-04T06:30:44;5.00;99.90
23063;DHT22;11699;43.704;10.430;2023-12-04T06:33:12;4.80;99.90
23063;DHT22;11699;43.704;10.430;2023-12-04T06:35:41;4.90;99.90
23063;DHT22;11699;43.704;10.430;2023-12-04T06:38:08;4.90;99.90
23063;DHT22;11699;43.704;10.430;2023-12-04T06:40:38;4.90;99.90
23063;DHT22;11699;43.704;10.430;2023-12-04T06:43:06;4.80;99.90
23063;DHT22;11699;43.704;10.430;2023-12-04T06:45:34;4.80;99.90
23063;DHT22;11699;43.704;10.430;2023-12-04T06:48:02;4.90;99.90
23063;DHT22;11699;43.704;10.430;2023-12-04T06:50:29;4.80;99.90
23063;DHT22;11699;43.704;10.430;2023-12-04T06:52:56;4.90;99.90
23063;DHT22;11699;43.704;10.430;2023-12-04T06:55:23;4.90;99.90
23063;DHT22;11699;43.704;10.430;2023-12-04T06:57:52;4.90;99.90
23063;DHT22;11699;43.704;10.430;2023-12-04T07:00:20;4.90;99.90
23063;DHT22;11699;43.704;10.430;2023-12-04T07:02:47;5.00;99.90
23063;DHT22;11699;43.704;10.430;2023-12-04T07:05:15;5.00;99.90
23063;DHT22;11699;43.704;10.430;2023-12-04T07:07:42;5.10;99.90
23063;DHT22;11699;43.704;10.430;2023-12-04T07:10:10;5.10;99.90
23063;DHT22;11699;43.704;10.430;2023-12-04T07:12:40;5.00;99.90
23063;DHT22;11699;43.704;10.430;2023-12-04T07:15:13;5.10;99.90
23063;DHT22;11699;43.704;10.430;2023-12-04T07:17:41;5.10;99.90
23063;DHT22;11699;43.704;10.430;2023-12-04T07:20:09;5.10;99.90
23063;DHT22;11699;43.704;10.430;2023-12-04T07:22:37;5.20;99.90
23063;DHT22;11699;43.704;10.430;2023-12-04T07:25:05;5.40;99.90
23063;DHT22;11699;43.704;10.430;2023-12-04T07:27:33;5.40;99.90
23063;DHT22;11699;43.704;10.430;2023-12-04T07:30:02;5.50;99.90
23063;DHT22;11699;43.704;10.430;2023-12-04T07:32:34;5.60;99.90
23063;DHT22;11699;43.704;10.430;2023-12-04T07:35:02;5.70;99.90
23063;DHT22;11699;43.704;10.430;2023-12-04T07:37:30;5.70;99.90
23063;DHT22;11699;43.704;10.430;2023-12-04T07:39:58;5.70;99.90
23063;DHT22;11699;43.704;10.430;2023-12-04T07:42:25;5.70;99.90
23063;DHT22;11699;43.704;10.430;2023-12-04T07:44:53;5.80;99.90
23063;DHT22;11699;43.704;10.430;2023-12-04T07:47:20;5.80;99.90
23063;DHT22;11699;43.704;10.430;2023-12-04T07:49:50;5.80;99.90
23063;DHT22;11699;43.704;10.430;2023-12-04T07:52:18;5.70;99.90
23063;DHT22;11699;43.704;10.430;2023-12-04T07:54:45;5.80;99.90
23063;DHT22;11699;43.704;10.430;2023-12-04T07:57:12;5.80;99.90
23063;DHT22;11699;43.704;10.430;2023-12-04T07:59:40;5.70;99.90
23063;DHT22;11699;43.704;10.430;2023-12-04T08:02:08;5.80;99.90
23063;DHT22;11699;43.704;10.430;2023-12-04T08:04:36;5.80;99.90
23063;DHT22;11699;43.704;10.430;2023-12-04T08:07:05;5.80;99.90
23063;DHT22;11699;43.704;10.430;2023-12-04T08:09:32;5.80;99.90
23063;DHT22;11699;43.704;10.430;2023-12-04T08:12:00;5.80;99.90
23063;DHT22;11699;43.704;10.430;2023-12-04T08:14:27;5.70;99.90
23063;DHT22;11699;43.704;10.430;2023-12-04T08:16:54;5.70;99.90
23063;DHT22;11699;43.704;10.430;2023-12-04T08:19:21;5.80;99.90
23063;DHT22;11699;43.704;10.430;2023-12-04T08:21:49;5.90;99.90
23063;DHT22;11699;43.704;10.430;2023-12-04T08:24:18;6.00;99.90
23063;DHT22;11699;43.704;10.430;2023-12-04T08:26:45;6.10;99.90
23063;DHT22;11699;43.704;10.430;2023-12-04T08:29:15;6.20;99.90
23063;DHT22;11699;43.704;10.430;2023-12-04T08:31:42;6.40;99.90
23063;DHT22;11699;43.704;10.430;2023-12-04T08:34:10;6.40;99.90
23063;DHT22;11699;43.704;10.430;2023-12-04T08:36:37;6.50;99.90
23063;DHT22;11699;43.704;10.430;2023-12-04T08:39:04;6.60;99.90
23063;DHT22;11699;43.704;10.430;2023-12-04T08:41:33;6.70;99.90
23063;DHT22;11699;43.704;10.430;2023-12-04T08:44:01;6.80;99.90
23063;DHT22;11699;43.704;10.430;2023-12-04T08:46:30;6.90;99.90
23063;DHT22;11699;43.704;10.430;2023-12-04T08:48:58;7.00;99.90
23063;DHT22;11699;43.704;10.430;2023-12-04T08:51:25;7.10;99.90
23063;DHT22;11699;43.704;10.430;2023-12-04T08:53:52;7.20;99.90
23063;DHT22;11699;43.704;10.430;2023-12-04T08:56:19;7.20;99.90
23063;DHT22;11699;43.704;10.430;2023-12-04T08:58:48;7.20;99.90
23063;DHT22;11699;43.704;10.430;2023-12-04T09:01:16;7.20;99.90
23063;DHT22;11699;43.704;10.430;2023-12-04T09:03:44;7.40;99.90
23063;DHT22;11699;43.704;10.430;2023-12-04T09:06:11;7.50;99.90
23063;DHT22;11699;43.704;10.430;2023-12-04T09:08:40;7.60;99.90
23063;DHT22;11699;43.704;10.430;2023-12-04T09:11:08;7.70;99.90
23063;DHT22;11699;43.704;10.430;2023-12-04T09:13:41;7.70;99.90
23063;DHT22;11699;43.704;10.430;2023-12-04T09:16:10;7.70;99.90
23063;DHT22;11699;43.704;10.430;2023-12-04T09:18:37;7.60;99.90
23063;DHT22;11699;43.704;10.430;2023-12-04T09:21:04;7.70;99.90
23063;DHT22;11699;43.704;10.430;2023-12-04T09:23:32;7.70;99.90
23063;DHT22;11699;43.704;10.430;2023-12-04T09:25:59;7.80;99.90
23063;DHT22;11699;43.704;10.430;2023-12-04T09:28:26;7.80;99.90
23063;DHT22;11699;43.704;10.430;2023-12-04T09:30:53;7.80;99.90
23063;DHT22;11699;43.704;10.430;2023-12-04T09:33:22;7.80;99.90
23063;DHT22;11699;43.704;10.430;2023-12-04T09:35:49;7.70;99.90
23063;DHT22;11699;43.704;10.430;2023-12-04T09:38:16;7.50;99.90
23063;DHT22;11699;43.704;10.430;2023-12-04T09:40:44;7.40;99.90
23063;DHT22;11699;43.704;10.430;2023-12-04T09:43:12;7.40;99.90
23063;DHT22;11699;43.704;10.430;2023-12-04T09:45:40;7.40;99.90
23063;DHT22;11699;43.704;10.430;2023-12-04T09:48:07;7.40;99.90
23063;DHT22;11699;43.704;10.430;2023-12-04T09:50:38;7.40;99.90
23063;DHT22;11699;43.704;10.430;2023-12-04T09:53:08;7.60;99.90
23063;DHT22;11699;43.704;10.430;2023-12-04T09:55:37;7.70;99.90
23063;DHT22;11699;43.704;10.430;2023-12-04T09:58:04;7.60;99.90
23063;DHT22;11699;43.704;10.430;2023-12-04T10:00:32;7.70;99.90
23063;DHT22;11699;43.704;10.430;2023-12-04T10:03:00;7.70;99.90
23063;DHT22;11699;43.704;10.430;2023-12-04T10:05:30;7.80;99.90
23063;DHT22;11699;43.704;10.430;2023-12-04T10:07:58;7.90;99.90
23063;DHT22;11699;43.704;10.430;2023-12-04T10:10:26;8.00;99.90
23063;DHT22;11699;43.704;10.430;2023-12-04T10:12:54;8.10;99.90
23063;DHT22;11699;43.704;10.430;2023-12-04T10:15:21;8.10;99.90
23063;DHT22;11699;43.704;10.430;2023-12-04T10:17:48;8.30;99.90
23063;DHT22;11699;43.704;10.430;2023-12-04T10:20:17;8.30;99.90
23063;DHT22;11699;43.704;10.430;2023-12-04T10:22:54;8.10;99.90
23063;DHT22;11699;43.704;10.430;2023-12-04T10:25:24;8.20;99.90
23063;DHT22;11699;43.704;10.430;2023-12-04T10:27:53;8.20;99.90
23063;DHT22;11699;43.704;10.430;2023-12-04T10:30:25;8.40;99.90
23063;DHT22;11699;43.704;10.430;2023-12-04T10:32:58;8.40;99.90
23063;DHT22;11699;43.704;10.430;2023-12-04T10:35:28;8.40;99.90
23063;DHT22;11699;43.704;10.430;2023-12-04T10:37:56;8.40;99.90
23063;DHT22;11699;43.704;10.430;2023-12-04T10:40:26;8.40;99.90
23063;DHT22;11699;43.704;10.430;2023-12-04T10:43:10;8.40;99.90
23063;DHT22;11699;43.704;10.430;2023-12-04T10:45:40;8.40;99.90
23063;DHT22;11699;43.704;10.430;2023-12-04T10:48:08;8.50;99.90
23063;DHT22;11699;43.704;10.430;2023-12-04T10:50:36;8.40;99.90
23063;DHT22;11699;43.704;10.430;2023-12-04T10:53:05;8.30;99.90
23063;DHT22;11699;43.704;10.430;2023-12-04T10:55:35;8.20;99.90
23063;DHT22;11699;43.704;10.430;2023-12-04T10:58:05;8.20;99.90
23063;DHT22;11699;43.704;10.430;2023-12-04T11:00:34;8.20;99.90
23063;DHT22;11699;43.704;10.430;2023-12-04T11:03:04;8.20;99.90
23063;DHT22;11699;43.704;10.430;2023-12-04T11:05:33;8.20;99.90
23063;DHT22;11699;43.704;10.430;2023-12-04T11:08:06;8.20;99.90
23063;DHT22;11699;43.704;10.430;2023-12-04T11:10:43;8.30;99.90
23063;DHT22;11699;43.704;10.430;2023-12-04T11:13:16;8.30;99.90
23063;DHT22;11699;43.704;10.430;2023-12-04T11:15:47;8.10;99.90
23063;DHT22;11699;43.704;10.430;2023-12-04T11:18:16;8.20;99.90
23063;DHT22;11699;43.704;10.430;2023-12-04T11:20:56;8.10;99.90
23063;DHT22;11699;43.704;10.430;2023-12-04T11:23:25;8.20;99.90
23063;DHT22;11699;43.704;10.430;2023-12-04T11:25:55;8.30;99.90
23063;DHT22;11699;43.704;10.430;2023-12-04T11:28:23;8.30;99.90
23063;DHT22;11699;43.704;10.430;2023-12-04T11:30:54;8.10;99.90
23063;DHT22;11699;43.704;10.430;2023-12-04T11:33:22;8.00;99.90
23063;DHT22;11699;43.704;10.430;2023-12-04T11:35:50;7.90;99.90
23063;DHT22;11699;43.704;10.430;2023-12-04T11:38:18;8.00;99.90
23063;DHT22;11699;43.704;10.430;2023-12-04T11:40:46;8.00;99.90
23063;DHT22;11699;43.704;10.430;2023-12-04T11:43:24;8.00;99.90
23063;DHT22;11699;43.704;10.430;2023-12-04T11:45:52;7.80;99.90
23063;DHT22;11699;43.704;10.430;2023-12-04T11:48:23;7.80;99.90
23063;DHT22;11699;43.704;10.430;2023-12-04T11:50:50;7.90;99.90
23063;DHT22;11699;43.704;10.430;2023-12-04T11:53:18;7.90;99.90
23063;DHT22;11699;43.704;10.430;2023-12-04T11:55:46;7.90;99.90
23063;DHT22;11699;43.704;10.430;2023-12-04T11:58:13;8.00;99.90
23063;DHT22;11699;43.704;10.430;2023-12-04T12:00:44;8.00;99.90
23063;DHT22;11699;43.704;10.430;2023-12-04T12:03:14;8.00;99.90
23063;DHT22;11699;43.704;10.430;2023-12-04T12:05:42;8.10;99.90
23063;DHT22;11699;43.704;10.430;2023-12-04T12:08:09;8.10;99.90
23063;DHT22;11699;43.704;10.430;2023-12-04T12:10:37;8.00;99.90
23063;DHT22;11699;43.704;10.430;2023-12-04T12:13:04;7.90;99.90
23063;DHT22;11699;43.704;10.430;2023-12-04T12:15:32;7.90;99.90
23063;DHT22;11699;43.704;10.430;2023-12-04T12:18:02;7.80;99.90
23063;DHT22;11699;43.704;10.430;2023-12-04T12:20:30;7.90;99.90
23063;DHT22;11699;43.704;10.430;2023-12-04T12:22:57;7.90;99.90
23063;DHT22;11699;43.704;10.430;2023-12-04T12:25:24;7.80;99.90
23063;DHT22;11699;43.704;10.430;2023-12-04T12:27:52;7.70;99.90
23063;DHT22;11699;43.704;10.430;2023-12-04T12:30:19;7.60;99.90
23063;DHT22;11699;43.704;10.430;2023-12-04T12:32:47;7.60;99.90
23063;DHT22;11699;43.704;10.430;2023-12-04T12:35:15;7.50;99.90
23063;DHT22;11699;43.704;10.430;2023-12-04T12:37:43;7.50;99.90
23063;DHT22;11699;43.704;10.430;2023-12-04T12:40:10;7.60;99.90
23063;DHT22;11699;43.704;10.430;2023-12-04T12:42:38;7.50;99.90
23063;DHT22;11699;43.704;10.430;2023-12-04T12:45:08;7.50;99.90
23063;DHT22;11699;43.704;10.430;2023-12-04T12:47:37;7.40;99.90
23063;DHT22;11699;43.704;10.430;2023-12-04T12:50:08;7.30;99.90
23063;DHT22;11699;43.704;10.430;2023-12-04T12:52:39;7.20;99.90
23063;DHT22;11699;43.704;10.430;2023-12-04T12:55:07;7.20;99.90
23063;DHT22;11699;43.704;10.430;2023-12-04T12:57:35;7.40;99.90
23063;DHT22;11699;43.704;10.430;2023-12-04T13:00:03;7.50;99.90
23063;DHT22;11699;43.704;10.430;2023-12-04T13:02:35;7.50;99.90
23063;DHT22;11699;43.704;10.430;2023-12-04T13:05:02;7.60;99.90
23063;DHT22;11699;43.704;10.430;2023-12-04T13:07:30;7.60;99.90
23063;DHT22;11699;43.704;10.430;2023-12-04T13:09:59;7.50;99.90
23063;DHT22;11699;43.704;10.430;2023-12-04T13:12:26;7.60;99.90
23063;DHT22;11699;43.704;10.430;2023-12-04T13:14:54;7.60;99.90
23063;DHT22;11699;43.704;10.430;2023-12-04T13:17:21;7.40;99.90
23063;DHT22;11699;43.704;10.430;2023-12-04T13:19:48;7.40;99.90
23063;DHT22;11699;43.704;10.430;2023-12-04T13:22:16;7.40;99.90
23063;DHT22;11699;43.704;10.430;2023-12-04T13:24:43;7.50;99.90
23063;DHT22;11699;43.704;10.430;2023-12-04T13:27:12;7.60;99.90
23063;DHT22;11699;43.704;10.430;2023-12-04T13:29:39;7.80;99.90
23063;DHT22;11699;43.704;10.430;2023-12-04T13:32:07;7.80;99.90
23063;DHT22;11699;43.704;10.430;2023-12-04T13:34:34;7.80;99.90
23063;DHT22;11699;43.704;10.430;2023-12-04T13:37:02;7.70;99.90
23063;DHT22;11699;43.704;10.430;2023-12-04T13:39:30;7.50;99.90
23063;DHT22;11699;43.704;10.430;2023-12-04T13:42:15;7.30;99.90
23063;DHT22;11699;43.704;10.430;2023-12-04T13:45:00;7.10;99.90
23063;DHT22;11699;43.704;10.430;2023-12-04T13:47:27;7.10;99.90
23063;DHT22;11699;43.704;10.430;2023-12-04T13:49:55;7.10;99.90
23063;DHT22;11699;43.704;10.430;2023-12-04T13:52:24;7.00;99.90
23063;DHT22;11699;43.704;10.430;2023-12-04T13:54:55;7.10;99.90
23063;DHT22;11699;43.704;10.430;2023-12-04T13:57:24;7.10;99.90
23063;DHT22;11699;43.704;10.430;2023-12-04T13:59:54;7.10;99.90
23063;DHT22;11699;43.704;10.430;2023-12-04T14:02:23;7.20;99.90
23063;DHT22;11699;43.704;10.430;2023-12-04T14:04:50;7.20;99.90
23063;DHT22;11699;43.704;10.430;2023-12-04T14:07:17;7.20;99.90
23063;DHT22;11699;43.704;10.430;2023-12-04T14:09:45;7.20;99.90
23063;DHT22;11699;43.704;10.430;2023-12-04T14:12:13;7.20;99.90
23063;DHT22;11699;43.704;10.430;2023-12-04T14:14:43;7.10;99.90
23063;DHT22;11699;43.704;10.430;2023-12-04T14:17:10;7.10;99.90
23063;DHT22;11699;43.704;10.430;2023-12-04T14:19:37;7.10;99.90
23063;DHT22;11699;43.704;10.430;2023-12-04T14:22:06;7.10;99.90
23063;DHT22;11699;43.704;10.430;2023-12-04T14:24:33;7.20;99.90
23063;DHT22;11699;43.704;10.430;2023-12-04T14:27:01;7.20;99.90
23063;DHT22;11699;43.704;10.430;2023-12-04T14:29:28;7.30;99.90
23063;DHT22;11699;43.704;10.430;2023-12-04T14:31:57;7.40;99.90
23063;DHT22;11699;43.704;10.430;2023-12-04T14:34:25;7.50;99.90
23063;DHT22;11699;43.704;10.430;2023-12-04T14:36:52;7.50;99.90
23063;DHT22;11699;43.704;10.430;2023-12-04T14:39:19;7.50;99.90
23063;DHT22;11699;43.704;10.430;2023-12-04T14:41:47;7.60;99.90
23063;DHT22;11699;43.704;10.430;2023-12-04T14:44:15;7.70;99.90
23063;DHT22;11699;43.704;10.430;2023-12-04T14:46:41;7.80;99.90
23063;DHT22;11699;43.704;10.430;2023-12-04T14:49:09;7.90;99.90
23063;DHT22;11699;43.704;10.430;2023-12-04T14:51:37;8.00;99.90
23063;DHT22;11699;43.704;10.430;2023-12-04T14:54:04;7.90;99.90
23063;DHT22;11699;43.704;10.430;2023-12-04T14:56:42;7.70;99.90
23063;DHT22;11699;43.704;10.430;2023-12-04T14:59:39;7.60;99.90
23063;DHT22;11699;43.704;10.430;2023-12-04T15:02:33;7.40;99.90
23063;DHT22;11699;43.704;10.430;2023-12-04T15:05:18;7.40;99.90
23063;DHT22;11699;43.704;10.430;2023-12-04T15:08:12;7.30;99.90
23063;DHT22;11699;43.704;10.430;2023-12-04T15:10:57;7.40;99.90
23063;DHT22;11699;43.704;10.430;2023-12-04T15:13:50;7.50;99.90
23063;DHT22;11699;43.704;10.430;2023-12-04T15:16:21;7.60;99.90
23063;DHT22;11699;43.704;10.430;2023-12-04T15:19:01;7.50;99.90
23063;DHT22;11699;43.704;10.430;2023-12-04T15:21:52;7.50;99.90
23063;DHT22;11699;43.704;10.430;2023-12-04T15:24:20;7.40;99.90
23063;DHT22;11699;43.704;10.430;2023-12-04T15:26:47;7.30;99.90
23063;DHT22;11699;43.704;10.430;2023-12-04T15:29:14;7.10;99.90
23063;DHT22;11699;43.704;10.430;2023-12-04T15:31:44;7.10;99.90
23063;DHT22;11699;43.704;10.430;2023-12-04T15:34:11;7.00;99.90
23063;DHT22;11699;43.704;10.430;2023-12-04T15:36:37;7.00;99.90
23063;DHT22;11699;43.704;10.430;2023-12-04T15:39:06;7.00;99.90